Terminal Aerodrome Forecast
Issued by NWS Wilmington, OH

Current Version | Previous Version | Text Only | Print | Product List | Glossary Off
Versions: 1 2 3 4 5 6 7 8 9 10 11 12 13 14 15 16 17 18 19 20 21 22 23 24

000
FTUS41 KILN 261100
TAFILN
TAF
KILN 261121Z 2612/2712 21008KT P6SM BKN080
     FM261600 22012G18KT P6SM SCT040 BKN250
     FM270300 23006KT P6SM VCTS BKN040CB OVC150
      TEMPO 2705/2708 2SM -TSRA OVC020CB
     FM271000 20006KT P6SM BKN100=

USA.gov is the U.S. government's official web portal to all federal, state and local government web resources and services.